createdAt,value
2022-09-01T00:00:51.378Z,1015.61
2022-09-01T00:01:51.089Z,1015.57
2022-09-01T00:02:51.226Z,1015.57
2022-09-01T00:03:50.945Z,1015.59
2022-09-01T00:04:51.058Z,1015.55
2022-09-01T00:05:53.889Z,1015.55
2022-09-01T00:06:51.053Z,1015.53
2022-09-01T00:07:50.965Z,1015.55
2022-09-01T00:08:50.828Z,1015.54
2022-09-01T00:09:51.071Z,1015.52
2022-09-01T00:10:50.901Z,1015.54
2022-09-01T00:11:50.989Z,1015.56
2022-09-01T00:12:50.795Z,1015.51
2022-09-01T00:13:50.823Z,1015.53
2022-09-01T00:14:50.985Z,1015.54
2022-09-01T00:15:51.026Z,1015.52
2022-09-01T00:16:51.828Z,1015.51
2022-09-01T00:17:50.794Z,1015.50
2022-09-01T00:18:50.828Z,1015.52
2022-09-01T00:19:50.733Z,1015.50
2022-09-01T00:20:50.762Z,1015.52
2022-09-01T00:21:51.276Z,1015.52
2022-09-01T00:22:50.922Z,1015.53
2022-09-01T00:23:50.987Z,1015.54
2022-09-01T00:24:50.662Z,1015.52
2022-09-01T00:25:51.424Z,1015.53
2022-09-01T00:26:50.967Z,1015.55
2022-09-01T00:27:51.248Z,1015.56
2022-09-01T00:28:52.173Z,1015.57
2022-09-01T00:29:50.529Z,1015.56
2022-09-01T00:30:50.811Z,1015.55
2022-09-01T00:31:50.528Z,1015.56
2022-09-01T00:32:50.608Z,1015.56
2022-09-01T00:33:50.770Z,1015.56
2022-09-01T00:34:50.514Z,1015.57
2022-09-01T00:35:50.800Z,1015.59
2022-09-01T00:36:50.718Z,1015.57
2022-09-01T00:37:50.546Z,1015.59
2022-09-01T00:38:50.649Z,1015.53
2022-09-01T00:39:50.493Z,1015.57
2022-09-01T00:40:50.764Z,1015.56
2022-09-01T00:41:50.290Z,1015.58
2022-09-01T00:42:50.451Z,1015.54
2022-09-01T00:43:50.404Z,1015.59
2022-09-01T00:44:50.505Z,1015.60
2022-09-01T00:45:51.022Z,1015.55
2022-09-01T00:46:54.988Z,1015.53
2022-09-01T00:47:51.293Z,1015.57
2022-09-01T00:48:50.418Z,1015.56
2022-09-01T00:49:50.323Z,1015.53
2022-09-01T00:50:50.918Z,1015.53
2022-09-01T00:51:50.342Z,1015.52
2022-09-01T00:52:50.360Z,1015.50
2022-09-01T00:53:50.301Z,1015.50
2022-09-01T00:54:50.614Z,1015.50
2022-09-01T00:55:50.226Z,1015.52
2022-09-01T00:56:57.255Z,1015.49
2022-09-01T00:57:51.593Z,1015.51
2022-09-01T00:58:50.338Z,1015.50
2022-09-01T00:59:50.111Z,1015.52
2022-09-01T01:00:50.375Z,1015.48
2022-09-01T01:01:50.338Z,1015.52
2022-09-01T01:02:50.290Z,1015.51
2022-09-01T01:03:50.624Z,1015.45
2022-09-01T01:04:50.090Z,1015.48
2022-09-01T01:05:50.097Z,1015.46
2022-09-01T01:06:50.100Z,1015.51
2022-09-01T01:07:50.109Z,1015.46
2022-09-01T01:08:50.165Z,1015.53
2022-09-01T01:09:50.550Z,1015.51
2022-09-01T01:10:50.261Z,1015.49
2022-09-01T01:11:50.049Z,1015.54
2022-09-01T01:12:50.157Z,1015.53
2022-09-01T01:13:50.208Z,1015.52
2022-09-01T01:14:50.723Z,1015.52
2022-09-01T01:15:50.022Z,1015.52
2022-09-01T01:16:50.111Z,1015.57
2022-09-01T01:17:50.183Z,1015.53
2022-09-01T01:18:49.875Z,1015.55
2022-09-01T01:19:49.842Z,1015.52
2022-09-01T01:20:50.304Z,1015.52
2022-09-01T01:21:50.603Z,1015.54
2022-09-01T01:22:50.019Z,1015.52
2022-09-01T01:23:50.276Z,1015.53
2022-09-01T01:24:49.953Z,1015.56
2022-09-01T01:25:50.341Z,1015.56
2022-09-01T01:26:49.845Z,1015.53
2022-09-01T01:27:50.656Z,1015.54
2022-09-01T01:28:49.956Z,1015.55
2022-09-01T01:29:49.823Z,1015.55
2022-09-01T01:30:49.820Z,1015.54
2022-09-01T01:31:49.859Z,1015.54
2022-09-01T01:32:49.785Z,1015.57
2022-09-01T01:33:49.660Z,1015.55
2022-09-01T01:34:50.045Z,1015.52
2022-09-01T01:35:49.777Z,1015.54
2022-09-01T01:36:50.316Z,1015.54
2022-09-01T01:37:49.751Z,1015.53
2022-09-01T01:38:50.161Z,1015.53
2022-09-01T01:39:49.571Z,1015.55
2022-09-01T01:40:49.756Z,1015.55
2022-09-01T01:41:50.659Z,1015.53
2022-09-01T01:42:49.677Z,1015.56
2022-09-01T01:43:49.753Z,1015.59
2022-09-01T01:44:49.758Z,1015.56
2022-09-01T01:45:49.799Z,1015.56
2022-09-01T01:46:49.574Z,1015.57
2022-09-01T01:47:49.590Z,1015.57
2022-09-01T01:48:49.735Z,1015.53
2022-09-01T01:49:50.542Z,1015.54
2022-09-01T01:50:49.730Z,1015.50
2022-09-01T01:51:49.646Z,1015.51
2022-09-01T01:52:49.791Z,1015.53
2022-09-01T01:53:50.697Z,1015.57
2022-09-01T01:54:49.989Z,1015.62
2022-09-01T01:55:49.567Z,1015.61
2022-09-01T01:56:49.673Z,1015.64
2022-09-01T01:57:49.609Z,1015.61
2022-09-01T01:58:49.553Z,1015.63
2022-09-01T01:59:49.719Z,1015.67
2022-09-01T02:00:49.338Z,1015.65
2022-09-01T02:01:49.483Z,1015.68
2022-09-01T02:02:49.562Z,1015.66
2022-09-01T02:03:49.382Z,1015.63
2022-09-01T02:04:49.333Z,1015.67
2022-09-01T02:05:49.570Z,1015.64
2022-09-01T02:06:49.354Z,1015.69
2022-09-01T02:07:49.295Z,1015.67
2022-09-01T02:08:49.340Z,1015.66
2022-09-01T02:09:49.289Z,1015.65
2022-09-01T02:10:49.365Z,1015.66
2022-09-01T02:11:49.937Z,1015.64
2022-09-01T02:12:50.920Z,1015.65
2022-09-01T02:13:49.552Z,1015.67
2022-09-01T02:14:49.685Z,1015.69
2022-09-01T02:15:49.199Z,1015.62
2022-09-01T02:16:49.272Z,1015.66
2022-09-01T02:17:56.504Z,1015.67
2022-09-01T02:18:49.151Z,1015.68
2022-09-01T02:19:49.257Z,1015.69
2022-09-01T02:20:49.564Z,1015.61
2022-09-01T02:21:49.463Z,1015.64
2022-09-01T02:22:49.485Z,1015.65
2022-09-01T02:23:49.192Z,1015.67
2022-09-01T02:24:49.289Z,1015.62
2022-09-01T02:26:14.628Z,1015.61
2022-09-01T02:26:50.409Z,1015.61
2022-09-01T02:27:49.202Z,1015.63
2022-09-01T02:28:54.414Z,1015.59
2022-09-01T02:29:50.476Z,1015.62
2022-09-01T02:30:49.174Z,1015.59
2022-09-01T02:31:49.162Z,1015.59
2022-09-01T02:32:49.773Z,1015.59
2022-09-01T02:33:49.201Z,1015.62
2022-09-01T02:34:48.978Z,1015.56
2022-09-01T02:35:49.029Z,1015.60
2022-09-01T02:36:48.815Z,1015.61
2022-09-01T02:37:48.932Z,1015.60
2022-09-01T02:38:53.503Z,1015.60
2022-09-01T02:39:50.026Z,1015.63
2022-09-01T02:40:49.064Z,1015.61
2022-09-01T02:41:48.965Z,1015.62
2022-09-01T02:42:48.846Z,1015.60
2022-09-01T02:43:48.994Z,1015.60
2022-09-01T02:44:48.785Z,1015.60
2022-09-01T02:45:48.829Z,1015.60
2022-09-01T02:46:48.695Z,1015.60
2022-09-01T02:47:48.894Z,1015.57
2022-09-01T02:48:48.903Z,1015.54
2022-09-01T02:49:48.988Z,1015.56
2022-09-01T02:50:49.654Z,1015.54
2022-09-01T02:51:48.703Z,1015.58
2022-09-01T02:52:49.235Z,1015.56
2022-09-01T02:53:48.655Z,1015.54
2022-09-01T02:54:48.765Z,1015.55
2022-09-01T02:55:48.621Z,1015.58
2022-09-01T02:56:48.853Z,1015.60
2022-09-01T02:57:49.050Z,1015.58
2022-09-01T02:58:49.965Z,1015.59
2022-09-01T02:59:49.674Z,1015.58
2022-09-01T03:00:48.698Z,1015.57
2022-09-01T03:01:48.500Z,1015.58
2022-09-01T03:02:48.699Z,1015.56
2022-09-01T03:03:48.828Z,1015.56
2022-09-01T03:04:48.652Z,1015.60
2022-09-01T03:05:48.689Z,1015.58
2022-09-01T03:06:48.458Z,1015.57
2022-09-01T03:07:50.060Z,1015.55
2022-09-01T03:08:48.461Z,1015.54
2022-09-01T03:09:48.564Z,1015.55
2022-09-01T03:10:48.449Z,1015.54
2022-09-01T03:11:48.582Z,1015.54
2022-09-01T03:12:48.806Z,1015.58
2022-09-01T03:13:49.110Z,1015.57
2022-09-01T03:14:48.739Z,1015.57
2022-09-01T03:15:48.654Z,1015.56
2022-09-01T03:16:49.930Z,1015.57
2022-09-01T03:17:48.615Z,1015.59
2022-09-01T03:18:48.506Z,1015.62
2022-09-01T03:19:48.362Z,1015.59
2022-09-01T03:20:49.275Z,1015.61
2022-09-01T03:21:48.604Z,1015.62
2022-09-01T03:22:48.291Z,1015.58
2022-09-01T03:23:48.460Z,1015.58
2022-09-01T03:24:48.366Z,1015.63
2022-09-01T03:25:48.406Z,1015.62
2022-09-01T03:26:50.337Z,1015.63
2022-09-01T03:27:48.562Z,1015.61
2022-09-01T03:28:48.398Z,1015.61
2022-09-01T03:29:48.509Z,1015.62
2022-09-01T03:30:48.198Z,1015.63
2022-09-01T03:31:48.436Z,1015.66
2022-09-01T03:32:48.451Z,1015.63
2022-09-01T03:33:48.239Z,1015.62
2022-09-01T03:34:48.178Z,1015.61
2022-09-01T03:35:48.221Z,1015.61
2022-09-01T03:36:48.427Z,1015.60
2022-09-01T03:37:48.349Z,1015.63
2022-09-01T03:38:48.161Z,1015.60
2022-09-01T03:39:48.194Z,1015.61
2022-09-01T03:40:48.134Z,1015.60
2022-09-01T03:41:48.520Z,1015.58
2022-09-01T03:42:48.263Z,1015.57
2022-09-01T03:43:48.838Z,1015.56
2022-09-01T03:44:48.286Z,1015.59
2022-09-01T03:45:49.820Z,1015.57
2022-09-01T03:46:48.099Z,1015.54
2022-09-01T03:47:48.096Z,1015.57
2022-09-01T03:48:48.168Z,1015.58
2022-09-01T03:49:48.071Z,1015.52
2022-09-01T03:50:48.016Z,1015.53
2022-09-01T03:51:48.003Z,1015.55
2022-09-01T03:52:47.869Z,1015.54
2022-09-01T03:53:48.142Z,1015.55
2022-09-01T03:54:47.832Z,1015.57
2022-09-01T03:55:48.100Z,1015.56
2022-09-01T03:56:48.106Z,1015.59
2022-09-01T03:57:48.064Z,1015.56
2022-09-01T03:58:47.942Z,1015.55
2022-09-01T03:59:47.855Z,1015.58
2022-09-01T04:00:49.226Z,1015.55
2022-09-01T04:01:47.919Z,1015.57
2022-09-01T04:02:47.857Z,1015.58
2022-09-01T04:03:49.057Z,1015.53
2022-09-01T04:04:47.827Z,1015.55
2022-09-01T04:05:48.529Z,1015.56
2022-09-01T04:06:47.984Z,1015.53
2022-09-01T04:07:47.717Z,1015.51
2022-09-01T04:08:47.688Z,1015.52
2022-09-01T04:09:47.911Z,1015.55
2022-09-01T04:10:47.703Z,1015.49
2022-09-01T04:11:48.961Z,1015.53
2022-09-01T04:12:47.746Z,1015.51
2022-09-01T04:13:47.573Z,1015.50
2022-09-01T04:14:47.946Z,1015.53
2022-09-01T04:15:47.690Z,1015.56
2022-09-01T04:16:47.860Z,1015.53
2022-09-01T04:17:47.682Z,1015.55
2022-09-01T04:18:47.716Z,1015.52
2022-09-01T04:19:47.810Z,1015.58
2022-09-01T04:20:47.552Z,1015.57
2022-09-01T04:21:47.715Z,1015.57
2022-09-01T04:22:47.487Z,1015.58
2022-09-01T04:23:47.644Z,1015.56
2022-09-01T04:24:47.646Z,1015.59
2022-09-01T04:25:47.452Z,1015.58
2022-09-01T04:26:47.865Z,1015.59
2022-09-01T04:27:47.470Z,1015.60
2022-09-01T04:28:47.548Z,1015.64
2022-09-01T04:29:47.843Z,1015.61
2022-09-01T04:30:47.582Z,1015.59
2022-09-01T04:31:48.740Z,1015.64
2022-09-01T04:32:47.915Z,1015.60
2022-09-01T04:33:47.469Z,1015.54
2022-09-01T04:34:47.411Z,1015.58
2022-09-01T04:35:47.613Z,1015.55
2022-09-01T04:36:49.941Z,1015.56
2022-09-01T04:37:47.436Z,1015.57
2022-09-01T04:38:47.441Z,1015.55
2022-09-01T04:39:47.282Z,1015.55
2022-09-01T04:40:47.875Z,1015.55
2022-09-01T04:41:48.935Z,1015.56
2022-09-01T04:42:47.928Z,1015.57
2022-09-01T04:43:47.400Z,1015.55
2022-09-01T04:44:48.162Z,1015.55
2022-09-01T04:45:48.588Z,1015.56
2022-09-01T04:46:47.420Z,1015.58
2022-09-01T04:47:47.696Z,1015.58
2022-09-01T04:48:47.565Z,1015.57
2022-09-01T04:49:51.687Z,1015.54
2022-09-01T04:50:47.713Z,1015.55
2022-09-01T04:51:51.180Z,1015.54
2022-09-01T04:52:48.466Z,1015.53
2022-09-01T04:53:47.312Z,1015.57
2022-09-01T04:54:47.413Z,1015.54
2022-09-01T04:55:49.899Z,1015.55
2022-09-01T04:56:47.447Z,1015.55
2022-09-01T04:57:47.188Z,1015.48
2022-09-01T04:58:47.313Z,1015.53
2022-09-01T04:59:47.288Z,1015.51
2022-09-01T05:00:47.208Z,1015.44
2022-09-01T05:01:47.223Z,1015.47
2022-09-01T05:02:47.271Z,1015.47
2022-09-01T05:03:47.986Z,1015.47
2022-09-01T05:04:47.525Z,1015.47
2022-09-01T05:05:46.921Z,1015.43
2022-09-01T05:06:47.054Z,1015.46
2022-09-01T05:07:47.135Z,1015.49
2022-09-01T05:08:47.023Z,1015.46
2022-09-01T05:09:47.153Z,1015.43
2022-09-01T05:10:48.679Z,1015.47
2022-09-01T05:11:47.177Z,1015.48
2022-09-01T05:12:47.262Z,1015.47
2022-09-01T05:13:47.044Z,1015.52
2022-09-01T05:14:47.055Z,1015.45
2022-09-01T05:15:48.298Z,1015.48
2022-09-01T05:16:47.060Z,1015.48
2022-09-01T05:17:46.948Z,1015.50
2022-09-01T05:18:49.719Z,1015.50
2022-09-01T05:19:47.614Z,1015.52
2022-09-01T05:20:48.725Z,1015.51
2022-09-01T05:21:46.759Z,1015.52
2022-09-01T05:22:47.985Z,1015.51
2022-09-01T05:23:46.769Z,1015.53
2022-09-01T05:24:47.861Z,1015.53
2022-09-01T05:25:47.308Z,1015.52
2022-09-01T05:26:47.746Z,1015.50
2022-09-01T05:27:47.454Z,1015.46
2022-09-01T05:28:46.794Z,1015.50
2022-09-01T05:29:49.257Z,1015.50
2022-09-01T05:30:46.645Z,1015.51
2022-09-01T05:31:46.769Z,1015.53
2022-09-01T05:32:46.961Z,1015.54
2022-09-01T05:33:48.414Z,1015.52
2022-09-01T05:34:48.304Z,1015.54
2022-09-01T05:35:48.185Z,1015.53
2022-09-01T05:36:46.545Z,1015.57
2022-09-01T05:37:46.542Z,1015.52
2022-09-01T05:38:48.652Z,1015.51
2022-09-01T05:39:46.544Z,1015.52
2022-09-01T05:40:46.673Z,1015.55
2022-09-01T05:41:50.280Z,1015.54
2022-09-01T05:42:46.504Z,1015.54
2022-09-01T05:43:48.040Z,1015.56
2022-09-01T05:44:47.211Z,1015.58
2022-09-01T05:46:05.475Z,1015.55
2022-09-01T05:46:50.756Z,1015.54
2022-09-01T05:47:46.679Z,1015.57
2022-09-01T05:48:47.981Z,1015.57
2022-09-01T05:49:46.637Z,1015.60
2022-09-01T05:50:48.723Z,1015.57
2022-09-01T05:51:50.805Z,1015.56
2022-09-01T05:52:47.213Z,1015.57
2022-09-01T05:53:46.972Z,1015.58
2022-09-01T05:54:47.533Z,1015.57
2022-09-01T05:55:46.782Z,1015.60
2022-09-01T05:56:54.426Z,1015.62
2022-09-01T05:57:48.130Z,1015.61
2022-09-01T05:59:47.277Z,1015.65
2022-09-01T06:00:46.530Z,1015.62
2022-09-01T06:01:50.041Z,1015.62
2022-09-01T06:02:46.306Z,1015.60
2022-09-01T06:03:46.472Z,1015.62
2022-09-01T06:04:46.706Z,1015.62
2022-09-01T06:05:47.330Z,1015.61
2022-09-01T06:07:08.562Z,1015.58
2022-09-01T06:07:49.927Z,1015.63
2022-09-01T06:08:46.967Z,1015.62
2022-09-01T06:09:48.733Z,1015.62
2022-09-01T06:10:46.232Z,1015.63
2022-09-01T06:11:46.991Z,1015.61
2022-09-01T06:12:48.668Z,1015.60
2022-09-01T06:13:47.312Z,1015.63
2022-09-01T06:14:46.011Z,1015.66
2022-09-01T06:15:46.163Z,1015.65
2022-09-01T06:16:48.309Z,1015.61
2022-09-01T06:17:46.469Z,1015.60
2022-09-01T06:18:47.791Z,1015.63
2022-09-01T06:19:47.249Z,1015.61
2022-09-01T06:20:46.276Z,1015.60
2022-09-01T06:21:46.117Z,1015.63
2022-09-01T06:22:46.713Z,1015.64
2022-09-01T06:23:47.334Z,1015.59
2022-09-01T06:24:49.643Z,1015.58
2022-09-01T06:25:47.216Z,1015.58
2022-09-01T06:26:46.544Z,1015.60
2022-09-01T06:27:46.478Z,1015.60
2022-09-01T06:28:52.694Z,1015.59
2022-09-01T06:29:49.591Z,1015.57
2022-09-01T06:30:45.807Z,1015.59
2022-09-01T06:31:46.478Z,1015.59
2022-09-01T06:32:46.320Z,1015.59
2022-09-01T06:33:47.377Z,1015.60
2022-09-01T06:34:46.043Z,1015.60
2022-09-01T06:35:50.100Z,1015.64
2022-09-01T06:36:48.373Z,1015.59
2022-09-01T06:37:46.243Z,1015.63
2022-09-01T06:38:45.970Z,1015.62
2022-09-01T06:39:48.936Z,1015.64
2022-09-01T06:40:46.966Z,1015.66
2022-09-01T06:41:45.662Z,1015.68
2022-09-01T06:42:45.974Z,1015.72
2022-09-01T06:43:48.337Z,1015.65
2022-09-01T06:44:48.523Z,1015.70
2022-09-01T06:45:46.027Z,1015.69
2022-09-01T06:46:47.102Z,1015.67
2022-09-01T06:47:45.950Z,1015.74
2022-09-01T06:48:45.619Z,1015.68
2022-09-01T06:51:20.147Z,1015.72
2022-09-01T06:52:07.885Z,1015.71
2022-09-01T06:54:12.527Z,1015.74
2022-09-01T06:55:08.509Z,1015.71
2022-09-01T06:56:07.461Z,1015.74
2022-09-01T06:58:08.422Z,1015.76
2022-09-01T06:59:07.666Z,1015.77
2022-09-01T07:00:07.607Z,1015.74
2022-09-01T07:01:10.761Z,1015.69
2022-09-01T07:02:12.621Z,1015.74
2022-09-01T07:05:03.512Z,1015.79
2022-09-01T07:06:59.693Z,1015.78
2022-09-01T07:09:47.712Z,1015.81
2022-09-01T07:13:05.457Z,1015.84
2022-09-01T07:16:52.466Z,1015.83
2022-09-01T07:17:43.986Z,1015.85
2022-09-01T07:18:44.680Z,1015.82
2022-09-01T07:19:52.033Z,1015.80
2022-09-01T07:22:06.680Z,1015.78
2022-09-01T07:24:44.288Z,1015.79
2022-09-01T07:26:00.937Z,1015.81
2022-09-01T07:26:47.593Z,1015.79
2022-09-01T07:27:43.074Z,1015.77
2022-09-01T07:28:47.768Z,1015.75
2022-09-01T07:29:42.723Z,1015.76
2022-09-01T07:30:43.308Z,1015.77
2022-09-01T07:31:50.299Z,1015.73
2022-09-01T07:32:47.727Z,1015.76
2022-09-01T07:33:44.133Z,1015.76
2022-09-01T07:36:24.947Z,1015.80
2022-09-01T07:38:49.459Z,1015.80
2022-09-01T07:39:51.806Z,1015.78
2022-09-01T07:43:48.450Z,1015.77
2022-09-01T07:44:44.220Z,1015.75
2022-09-01T07:45:58.904Z,1015.75
2022-09-01T07:46:43.890Z,1015.75
2022-09-01T07:47:57.906Z,1015.77
2022-09-01T07:51:43.761Z,1015.76
2022-09-01T07:52:43.427Z,1015.77
2022-09-01T07:53:42.404Z,1015.74
2022-09-01T07:54:43.188Z,1015.77
2022-09-01T07:55:44.262Z,1015.75
2022-09-01T07:56:43.009Z,1015.81
2022-09-01T07:57:42.301Z,1015.74
2022-09-01T07:58:44.286Z,1015.77
2022-09-01T07:59:42.519Z,1015.79
2022-09-01T08:00:42.845Z,1015.76
2022-09-01T08:01:42.701Z,1015.75
2022-09-01T08:02:43.489Z,1015.77
2022-09-01T08:03:42.928Z,1015.78
2022-09-01T08:04:44.637Z,1015.77
2022-09-01T08:05:43.064Z,1015.75
2022-09-01T08:06:42.173Z,1015.77
2022-09-01T08:07:57.657Z,1015.76
2022-09-01T08:08:43.129Z,1015.77
2022-09-01T08:09:44.165Z,1015.74
2022-09-01T08:10:42.183Z,1015.76
2022-09-01T08:12:44.180Z,1015.75
2022-09-01T08:13:51.998Z,1015.78
2022-09-01T08:14:44.532Z,1015.79
2022-09-01T08:16:06.772Z,1015.79
2022-09-01T08:16:51.942Z,1015.79
2022-09-01T08:17:51.271Z,1015.78
2022-09-01T08:18:50.354Z,1015.77
2022-09-01T08:19:49.334Z,1015.79
2022-09-01T08:20:42.720Z,1015.72
2022-09-01T08:21:43.278Z,1015.75
2022-09-01T08:22:46.651Z,1015.80
2022-09-01T08:23:41.874Z,1015.77
2022-09-01T08:24:42.903Z,1015.77
2022-09-01T08:25:55.784Z,1015.78
2022-09-01T08:26:43.716Z,1015.82
2022-09-01T08:27:43.895Z,1015.81
2022-09-01T08:28:45.918Z,1015.78
2022-09-01T08:29:44.000Z,1015.78
2022-09-01T08:30:42.312Z,1015.73
2022-09-01T08:31:43.131Z,1015.76
2022-09-01T08:32:41.847Z,1015.76
2022-09-01T08:33:41.844Z,1015.75
2022-09-01T08:34:44.146Z,1015.76
2022-09-01T08:35:55.952Z,1015.74
2022-09-01T08:36:46.159Z,1015.72
2022-09-01T08:37:44.406Z,1015.75
2022-09-01T08:38:42.623Z,1015.78
2022-09-01T08:39:43.294Z,1015.76
2022-09-01T08:40:43.108Z,1015.78
2022-09-01T08:41:47.238Z,1015.76
2022-09-01T08:42:43.179Z,1015.78
2022-09-01T08:43:43.991Z,1015.77
2022-09-01T08:44:44.496Z,1015.75
2022-09-01T08:45:41.758Z,1015.78
2022-09-01T08:46:45.148Z,1015.78
2022-09-01T08:48:04.686Z,1015.73
2022-09-01T08:49:44.044Z,1015.71
2022-09-01T08:50:41.869Z,1015.72
2022-09-01T08:51:41.647Z,1015.70
2022-09-01T08:52:42.259Z,1015.69
2022-09-01T08:53:42.676Z,1015.73
2022-09-01T08:54:41.574Z,1015.74
2022-09-01T08:55:41.564Z,1015.76
2022-09-01T08:56:46.984Z,1015.72
2022-09-01T08:57:48.333Z,1015.69
2022-09-01T08:58:48.945Z,1015.70
2022-09-01T08:59:41.958Z,1015.68
2022-09-01T09:00:43.093Z,1015.66
2022-09-01T09:01:42.772Z,1015.66
2022-09-01T09:02:49.451Z,1015.70
2022-09-01T09:03:41.650Z,1015.67
2022-09-01T09:04:43.743Z,1015.63
2022-09-01T09:05:46.915Z,1015.64
2022-09-01T09:06:53.110Z,1015.69
2022-09-01T09:07:41.882Z,1015.71
2022-09-01T09:08:50.261Z,1015.68
2022-09-01T09:09:53.057Z,1015.65
2022-09-01T09:10:43.205Z,1015.66
2022-09-01T09:11:50.168Z,1015.63
2022-09-01T09:12:49.537Z,1015.63
2022-09-01T09:13:47.741Z,1015.60
2022-09-01T09:14:42.633Z,1015.60
2022-09-01T09:15:42.257Z,1015.61
2022-09-01T09:16:42.550Z,1015.56
2022-09-01T09:17:42.191Z,1015.58
2022-09-01T09:18:54.820Z,1015.59
2022-09-01T09:19:45.100Z,1015.59
2022-09-01T09:20:42.624Z,1015.56
2022-09-01T09:21:43.228Z,1015.55
2022-09-01T09:22:41.319Z,1015.57
2022-09-01T09:23:42.252Z,1015.52
2022-09-01T09:24:42.701Z,1015.49
2022-09-01T09:25:41.574Z,1015.46
2022-09-01T09:26:42.667Z,1015.39
2022-09-01T09:27:42.240Z,1015.44
2022-09-01T09:28:41.487Z,1015.40
2022-09-01T09:29:45.525Z,1015.41
2022-09-01T09:30:42.203Z,1015.47
2022-09-01T09:31:45.990Z,1015.45
2022-09-01T09:33:09.666Z,1015.40
2022-09-01T09:33:51.671Z,1015.37
2022-09-01T09:34:42.124Z,1015.35
2022-09-01T09:35:42.502Z,1015.37
2022-09-01T09:36:41.183Z,1015.41
2022-09-01T09:37:41.309Z,1015.37
2022-09-01T09:38:42.685Z,1015.36
2022-09-01T09:39:43.249Z,1015.37
2022-09-01T09:41:07.489Z,1015.42
2022-09-01T09:41:42.592Z,1015.46
2022-09-01T09:42:41.213Z,1015.47
2022-09-01T09:43:44.570Z,1015.44
2022-09-01T09:44:41.313Z,1015.41
2022-09-01T09:45:47.192Z,1015.34
2022-09-01T09:46:46.058Z,1015.33
2022-09-01T09:47:44.664Z,1015.38
2022-09-01T09:48:43.723Z,1015.39
2022-09-01T09:49:48.645Z,1015.33
2022-09-01T09:50:45.480Z,1015.34
2022-09-01T09:51:41.393Z,1015.40
2022-09-01T09:52:42.014Z,1015.36
2022-09-01T09:53:41.950Z,1015.35
2022-09-01T09:54:40.692Z,1015.38
2022-09-01T09:55:42.628Z,1015.34
2022-09-01T09:56:47.124Z,1015.34
2022-09-01T09:57:43.793Z,1015.27
2022-09-01T09:58:42.049Z,1015.32
2022-09-01T10:00:00.445Z,1015.22
2022-09-01T10:00:43.491Z,1015.28
2022-09-01T10:01:46.368Z,1015.26
2022-09-01T10:02:42.317Z,1015.26
2022-09-01T10:03:45.234Z,1015.21
2022-09-01T10:04:40.998Z,1015.28
2022-09-01T10:05:40.589Z,1015.21
2022-09-01T10:06:43.460Z,1015.21
2022-09-01T10:07:40.875Z,1015.16
2022-09-01T10:08:40.709Z,1015.12
2022-09-01T10:09:42.543Z,1015.11
2022-09-01T10:12:03.463Z,1015.23
2022-09-01T10:13:03.446Z,1015.16
2022-09-01T10:14:05.866Z,1015.13
2022-09-01T10:15:04.570Z,1015.18
2022-09-01T10:21:37.725Z,1015.14
2022-09-01T10:22:29.202Z,1015.13
2022-09-01T10:23:31.624Z,1015.11
2022-09-01T10:24:38.637Z,1015.08
2022-09-01T10:25:32.229Z,1015.03
2022-09-01T10:32:34.592Z,1014.98
2022-09-01T10:33:11.415Z,1014.98
2022-09-01T10:33:41.027Z,1015.00
2022-09-01T10:36:28.592Z,1014.95
2022-09-01T10:37:16.001Z,1014.93
2022-09-01T10:38:14.497Z,1014.87
2022-09-01T10:41:14.936Z,1014.83
2022-09-01T10:41:39.109Z,1014.83
2022-09-01T10:42:44.990Z,1014.87
2022-09-01T10:43:42.790Z,1014.86
2022-09-01T10:44:39.567Z,1014.83
2022-09-01T10:45:40.476Z,1014.86
2022-09-01T10:46:48.924Z,1014.88
2022-09-01T10:47:40.590Z,1014.87
2022-09-01T10:48:55.398Z,1014.89
2022-09-01T10:49:39.839Z,1014.88
2022-09-01T10:50:40.212Z,1014.86
2022-09-01T10:52:08.593Z,1014.87
2022-09-01T10:56:18.808Z,1014.83
2022-09-01T10:57:08.860Z,1014.86
2022-09-01T10:58:09.235Z,1014.82
2022-09-01T11:00:34.847Z,1014.83
2022-09-01T11:01:18.924Z,1014.83
2022-09-01T11:03:29.799Z,1014.79
2022-09-01T11:04:04.238Z,1014.83
2022-09-01T11:05:02.232Z,1014.83
2022-09-01T11:06:12.903Z,1014.81
2022-09-01T11:07:13.343Z,1014.83
2022-09-01T11:08:25.178Z,1014.81
2022-09-01T11:09:05.181Z,1014.87
2022-09-01T11:10:11.281Z,1014.81
2022-09-01T11:11:09.593Z,1014.83
2022-09-01T11:12:06.306Z,1014.75
2022-09-01T11:13:03.312Z,1014.79
2022-09-01T11:14:03.173Z,1014.71
2022-09-01T11:15:02.296Z,1014.67
2022-09-01T11:16:04.650Z,1014.75
2022-09-01T11:17:02.476Z,1014.65
2022-09-01T11:18:02.256Z,1014.65
2022-09-01T11:19:04.310Z,1014.64
2022-09-01T11:20:12.717Z,1014.59
2022-09-01T11:21:10.489Z,1014.66
2022-09-01T11:22:02.543Z,1014.72
2022-09-01T11:23:03.515Z,1014.67
2022-09-01T11:24:05.179Z,1014.72
2022-09-01T11:25:12.468Z,1014.76
2022-09-01T11:26:19.638Z,1014.65
2022-09-01T11:27:13.536Z,1014.65
2022-09-01T11:28:05.646Z,1014.72
2022-09-01T11:29:01.589Z,1014.66
2022-09-01T11:30:05.833Z,1014.66
2022-09-01T11:31:17.000Z,1014.63
2022-09-01T11:32:07.664Z,1014.67
2022-09-01T11:33:03.223Z,1014.67
2022-09-01T11:34:04.181Z,1014.66
2022-09-01T11:35:16.786Z,1014.68
2022-09-01T11:39:56.796Z,1014.69
2022-09-01T11:40:58.147Z,1014.64
2022-09-01T11:42:18.339Z,1014.61
2022-09-01T11:43:12.429Z,1014.63
2022-09-01T11:43:56.692Z,1014.60
2022-09-01T11:44:51.782Z,1014.65
2022-09-01T11:45:52.994Z,1014.58
2022-09-01T11:46:51.213Z,1014.64
2022-09-01T11:47:57.079Z,1014.66
2022-09-01T11:49:16.344Z,1014.66
2022-09-01T11:49:52.310Z,1014.61
2022-09-01T11:50:53.428Z,1014.64
2022-09-01T11:51:51.609Z,1014.66
2022-09-01T11:53:21.429Z,1014.68
2022-09-01T11:53:51.101Z,1014.73
2022-09-01T11:54:54.967Z,1014.70
2022-09-01T11:55:52.953Z,1014.60
2022-09-01T11:57:01.857Z,1014.60
2022-09-01T11:57:51.107Z,1014.56
2022-09-01T11:58:50.183Z,1014.60
2022-09-01T11:59:50.163Z,1014.51
2022-09-01T12:00:50.245Z,1014.60
2022-09-01T12:01:54.881Z,1014.55
2022-09-01T12:02:53.617Z,1014.63
2022-09-01T12:03:50.481Z,1014.59
2022-09-01T12:04:53.161Z,1014.57
2022-09-01T12:05:53.511Z,1014.53
2022-09-01T12:06:52.813Z,1014.56
2022-09-01T12:07:50.695Z,1014.56
2022-09-01T12:08:50.394Z,1014.49
2022-09-01T12:09:51.424Z,1014.50
2022-09-01T12:10:53.876Z,1014.51
2022-09-01T12:11:51.362Z,1014.50
2022-09-01T12:12:50.233Z,1014.55
2022-09-01T12:13:50.509Z,1014.51
2022-09-01T12:15:05.134Z,1014.45
2022-09-01T12:16:16.947Z,1014.45
2022-09-01T12:16:53.371Z,1014.44
2022-09-01T12:17:52.051Z,1014.49
2022-09-01T12:18:57.191Z,1014.46
2022-09-01T12:19:52.297Z,1014.40
2022-09-01T12:20:51.678Z,1014.50
2022-09-01T12:21:54.130Z,1014.52
2022-09-01T12:22:51.240Z,1014.45
2022-09-01T12:23:51.654Z,1014.46
2022-09-01T12:24:51.010Z,1014.50
2022-09-01T12:25:57.564Z,1014.45
2022-09-01T12:26:51.373Z,1014.46
2022-09-01T12:28:01.573Z,1014.46
2022-09-01T12:28:52.554Z,1014.51
2022-09-01T12:29:51.115Z,1014.50
2022-09-01T12:30:50.341Z,1014.49
2022-09-01T12:31:53.137Z,1014.45
2022-09-01T12:33:24.782Z,1014.46
2022-09-01T12:33:51.577Z,1014.44
2022-09-01T12:34:50.650Z,1014.43
2022-09-01T12:35:56.087Z,1014.43
2022-09-01T12:36:58.260Z,1014.40
2022-09-01T12:37:58.107Z,1014.37
2022-09-01T12:38:49.596Z,1014.33
2022-09-01T12:39:50.512Z,1014.39
2022-09-01T12:40:51.756Z,1014.35
2022-09-01T12:41:55.733Z,1014.37
2022-09-01T12:42:50.400Z,1014.29
2022-09-01T12:43:52.019Z,1014.34
2022-09-01T12:44:50.910Z,1014.34
2022-09-01T12:45:50.980Z,1014.35
2022-09-01T12:46:50.440Z,1014.36
2022-09-01T12:47:53.449Z,1014.34
2022-09-01T12:48:50.767Z,1014.35
2022-09-01T12:49:52.138Z,1014.31
2022-09-01T12:50:50.965Z,1014.38
2022-09-01T12:52:06.338Z,1014.29
2022-09-01T12:52:55.324Z,1014.29
2022-09-01T12:53:50.194Z,1014.27
2022-09-01T12:54:54.291Z,1014.27
2022-09-01T12:55:49.637Z,1014.30
2022-09-01T12:56:51.828Z,1014.30
2022-09-01T12:57:55.084Z,1014.25